Kendall Alyse — WDE4829 — position and weather

sailwx.info

Track history (hours):
 
Tides and Currents Weather Stations Pressure Air Temp Water Temp Dewpoint Dewpoint Depression Visibility Wind Speed Wind Dir Waves Ship Positions

Kendall Alyse

Owner: The Tug Kendall Alyse, L.L.C., Sugar Land, TX. More information available from US FCC via Universal Licensing System and Coast Guard Vessel Documentation Center.

Last reported at 2017-Sep-20 00:52 UTC. Time now 2017-Sep-20 02:13 UTC.
Position N 29°44' W 095°06'.

Length 20 m.

MMSI: 357358340.

Date/timePositionNaut miles runAvg speedWind from/ knotsBaromVisibWave heightAir tempDewpointWater temp
2017-Sep-20 00:52N 29°44' W 095°06'4 5.2
2017-Sep-20 00:11N 29°45' W 095°11'4 1.6
2017-Sep-19 21:52N 29°43' W 095°14'3 5.1
2017-Sep-19 21:15N 29°45' W 095°11'1 5.8
2017-Sep-19 21:00N 29°45' W 095°10'3 5.4
2017-Sep-19 20:30N 29°44' W 095°07'0 0.1
2017-Sep-19 18:20N 29°44' W 095°07'1 0.1
2017-Sep-19 03:21N 29°44' W 095°08'2 5.8
2017-Sep-19 03:00N 29°45' W 095°06'3 4.2
2017-Sep-19 02:23N 29°47' W 095°04'1 0.4
2017-Sep-18 23:16N 29°46' W 095°05'1 0.3
2017-Sep-18 18:21N 29°46' W 095°06'1 0.4
2017-Sep-18 16:39N 29°46' W 095°06'1 3.8
2017-Sep-18 16:27N 29°46' W 095°05'2 1.6
2017-Sep-18 15:10N 29°47' W 095°04'2 4.4
2017-Sep-18 14:47N 29°46' W 095°04'2 6.5
2017-Sep-18 14:30N 29°44' W 095°03'2 2.8
2017-Sep-18 13:50N 29°44' W 095°01'0 0.4
2017-Sep-18 12:35N 29°44' W 095°01'0 0.0
2017-Sep-18 12:23N 29°44' W 095°01'0 0.0
2017-Sep-18 12:00N 29°44' W 095°01'0 0.0
2017-Sep-17 23:52N 29°44' W 095°01'0 0.0
2017-Sep-17 23:27N 29°44' W 095°01'0 0.0
2017-Sep-17 22:56N 29°44' W 095°01'0 0.0
2017-Sep-17 22:27N 29°44' W 095°01'0 0.0
2017-Sep-17 21:53N 29°44' W 095°01'0 0.0
2017-Sep-17 21:22N 29°44' W 095°01'0 0.0
2017-Sep-17 20:48N 29°44' W 095°01'0 0.0
2017-Sep-17 20:30N 29°44' W 095°01'0 0.0
2017-Sep-17 19:58N 29°44' W 095°01'0 0.5
2017-Sep-17 19:28N 29°44' W 095°01'0 0.5
2017-Sep-17 18:57N 29°44' W 095°01'4 4.8
2017-Sep-17 18:01N 29°47' W 095°04'0 0.3
2017-Sep-17 17:49N 29°47' W 095°04'0 0.2
2017-Sep-17 17:30N 29°47' W 095°04'0 0.0
2017-Sep-17 17:00N 29°47' W 095°04'1 1.2
2017-Sep-17 16:24N 29°47' W 095°05'1 1.8
2017-Sep-17 15:53N 29°46' W 095°05'1 0.1
2017-Sep-17 07:11N 29°46' W 095°06'0 0.1
2017-Sep-17 04:22N 29°46' W 095°06'1 1.1
2017-Sep-17 03:54N 29°46' W 095°05'1 0.4
2017-Sep-17 02:21N 29°46' W 095°05'0 0.1
2017-Sep-17 01:24N 29°46' W 095°05'2 5.2
2017-Sep-17 01:00N 29°44' W 095°03'3 5.1
2017-Sep-17 00:30N 29°42' W 095°01'3 5.4
2017-Sep-17 00:00N 29°41' W 094°59'3 6.2
2017-Sep-16 23:30N 29°38' W 094°58'3 6.7
2017-Sep-16 23:00N 29°35' W 094°56'3 6.8
2017-Sep-16 22:30N 29°32' W 094°54'3 6.6
2017-Sep-16 22:00N 29°29' W 094°52'3 0.1
2017-Sep-16 01:10N 29°31' W 094°53'1 7.3
2017-Sep-16 01:00N 29°32' W 094°54'3 6.9
2017-Sep-16 00:30N 29°35' W 094°56'4 7.0
2017-Sep-16 00:00N 29°38' W 094°58'4 7.8
2017-Sep-15 23:30N 29°42' W 094°60'3 6.5
2017-Sep-15 23:00N 29°44' W 095°03'3 6.1
2017-Sep-15 22:30N 29°46' W 095°05'0 0.2
2017-Sep-15 21:42N 29°46' W 095°05'0 0.1
2017-Sep-15 18:29N 29°46' W 095°06'1 0.7
2017-Sep-15 17:28N 29°46' W 095°05'0 0.0
2017-Sep-15 05:26N 29°45' W 095°06'2 5.4
2017-Sep-15 05:00N 29°47' W 095°04'2 0.7
2017-Sep-15 02:42N 29°46' W 095°05'1 0.0
2017-Sep-14 02:20N 29°45' W 095°06'1 1.1
2017-Sep-14 01:19N 29°46' W 095°06'0 0.7
2017-Sep-14 00:59N 29°46' W 095°06'2 3.7
2017-Sep-14 00:30N 29°44' W 095°07'1 0.8
2017-Sep-13 23:35N 29°44' W 095°08'0 1.4
2017-Sep-13 23:28N 29°44' W 095°08'2 4.2
2017-Sep-13 22:58N 29°45' W 095°06'2 3.2
2017-Sep-13 22:27N 29°47' W 095°05'1 0.6
2017-Sep-13 20:45N 29°46' W 095°05'1 1.7
2017-Sep-13 20:13N 29°46' W 095°06'0 0.7
2017-Sep-13 19:51N 29°46' W 095°06'1 1.3
2017-Sep-13 19:27N 29°46' W 095°05'2 5.3
2017-Sep-13 19:00N 29°44' W 095°03'3 5.3
2017-Sep-13 18:30N 29°43' W 095°01'3 5.3
2017-Sep-13 18:00N 29°41' W 094°59'3 5.9
2017-Sep-13 17:30N 29°38' W 094°58'3 6.3
2017-Sep-13 17:00N 29°35' W 094°56'3 6.0
2017-Sep-13 16:30N 29°33' W 094°54'3 5.9
2017-Sep-13 16:00N 29°30' W 094°52'1 0.1
2017-Sep-12 17:55N 29°31' W 094°53'3 6.9
2017-Sep-12 17:30N 29°34' W 094°55'3 6.5
2017-Sep-12 17:00N 29°37' W 094°57'3 6.7
2017-Sep-12 16:30N 29°40' W 094°58'3 6.4
2017-Sep-12 16:00N 29°42' W 095°01'3 5.9
2017-Sep-12 15:30N 29°44' W 095°03'2 5.0
2017-Sep-12 15:00N 29°46' W 095°05'1 0.5
2017-Sep-12 13:35N 29°46' W 095°06'0 0.0
2017-Sep-12 13:29N 29°46' W 095°06'0 0.0
2017-Sep-12 12:56N 29°46' W 095°06'0 0.0
2017-Sep-12 12:05N 29°46' W 095°06'0 0.1
2017-Sep-12 11:58N 29°46' W 095°06'3 5.9
2017-Sep-12 11:30N 29°45' W 095°04'3 6.1
2017-Sep-12 11:00N 29°42' W 095°01'3 6.3
2017-Sep-12 10:31N 29°40' W 094°59'4 7.3
2017-Sep-12 10:01N 29°37' W 094°57'4 7.4
2017-Sep-12 09:30N 29°34' W 094°55'4 7.5
2017-Sep-12 09:01N 29°31' W 094°53'  
Track history (hours):
 
Tides and Currents Weather Stations Pressure Air Temp Water Temp Dewpoint Dewpoint Depression Visibility Wind Speed Wind Dir Waves Ship Positions

Kendall Alyse

Owner: The Tug Kendall Alyse, L.L.C., Sugar Land, TX. More information available from US FCC via Universal Licensing System and Coast Guard Vessel Documentation Center.

Last reported at 2017-Sep-20 00:52 UTC. Time now 2017-Sep-20 02:13 UTC.
Position N 29°44' W 095°06'.

Length 20 m.

MMSI: 357358340.

Date/timePositionNaut miles runAvg speedWind from/ knotsBaromVisibWave heightAir tempDewpointWater temp
2017-Sep-20 00:52N 29°44' W 095°06'4 5.2
2017-Sep-20 00:11N 29°45' W 095°11'4 1.6
2017-Sep-19 21:52N 29°43' W 095°14'3 5.1
2017-Sep-19 21:15N 29°45' W 095°11'1 5.8
2017-Sep-19 21:00N 29°45' W 095°10'3 5.4
2017-Sep-19 20:30N 29°44' W 095°07'0 0.1
2017-Sep-19 18:20N 29°44' W 095°07'1 0.1
2017-Sep-19 03:21N 29°44' W 095°08'2 5.8
2017-Sep-19 03:00N 29°45' W 095°06'3 4.2
2017-Sep-19 02:23N 29°47' W 095°04'1 0.4
2017-Sep-18 23:16N 29°46' W 095°05'1 0.3
2017-Sep-18 18:21N 29°46' W 095°06'1 0.4
2017-Sep-18 16:39N 29°46' W 095°06'1 3.8
2017-Sep-18 16:27N 29°46' W 095°05'2 1.6
2017-Sep-18 15:10N 29°47' W 095°04'2 4.4
2017-Sep-18 14:47N 29°46' W 095°04'2 6.5
2017-Sep-18 14:30N 29°44' W 095°03'2 2.8
2017-Sep-18 13:50N 29°44' W 095°01'0 0.4
2017-Sep-18 12:35N 29°44' W 095°01'0 0.0
2017-Sep-18 12:23N 29°44' W 095°01'0 0.0
2017-Sep-18 12:00N 29°44' W 095°01'0 0.0
2017-Sep-17 23:52N 29°44' W 095°01'0 0.0
2017-Sep-17 23:27N 29°44' W 095°01'0 0.0
2017-Sep-17 22:56N 29°44' W 095°01'0 0.0
2017-Sep-17 22:27N 29°44' W 095°01'0 0.0
2017-Sep-17 21:53N 29°44' W 095°01'0 0.0
2017-Sep-17 21:22N 29°44' W 095°01'0 0.0
2017-Sep-17 20:48N 29°44' W 095°01'0 0.0
2017-Sep-17 20:30N 29°44' W 095°01'0 0.0
2017-Sep-17 19:58N 29°44' W 095°01'0 0.5
2017-Sep-17 19:28N 29°44' W 095°01'0 0.5
2017-Sep-17 18:57N 29°44' W 095°01'4 4.8
2017-Sep-17 18:01N 29°47' W 095°04'0 0.3
2017-Sep-17 17:49N 29°47' W 095°04'0 0.2
2017-Sep-17 17:30N 29°47' W 095°04'0 0.0
2017-Sep-17 17:00N 29°47' W 095°04'1 1.2
2017-Sep-17 16:24N 29°47' W 095°05'1 1.8
2017-Sep-17 15:53N 29°46' W 095°05'1 0.1
2017-Sep-17 07:11N 29°46' W 095°06'0 0.1
2017-Sep-17 04:22N 29°46' W 095°06'1 1.1
2017-Sep-17 03:54N 29°46' W 095°05'1 0.4
2017-Sep-17 02:21N 29°46' W 095°05'0 0.1
2017-Sep-17 01:24N 29°46' W 095°05'2 5.2
2017-Sep-17 01:00N 29°44' W 095°03'3 5.1
2017-Sep-17 00:30N 29°42' W 095°01'3 5.4
2017-Sep-17 00:00N 29°41' W 094°59'3 6.2
2017-Sep-16 23:30N 29°38' W 094°58'3 6.7
2017-Sep-16 23:00N 29°35' W 094°56'3 6.8
2017-Sep-16 22:30N 29°32' W 094°54'3 6.6
2017-Sep-16 22:00N 29°29' W 094°52'3 0.1
2017-Sep-16 01:10N 29°31' W 094°53'1 7.3
2017-Sep-16 01:00N 29°32' W 094°54'3 6.9
2017-Sep-16 00:30N 29°35' W 094°56'4 7.0
2017-Sep-16 00:00N 29°38' W 094°58'4 7.8
2017-Sep-15 23:30N 29°42' W 094°60'3 6.5
2017-Sep-15 23:00N 29°44' W 095°03'3 6.1
2017-Sep-15 22:30N 29°46' W 095°05'0 0.2
2017-Sep-15 21:42N 29°46' W 095°05'0 0.1
2017-Sep-15 18:29N 29°46' W 095°06'1 0.7
2017-Sep-15 17:28N 29°46' W 095°05'0 0.0
2017-Sep-15 05:26N 29°45' W 095°06'2 5.4
2017-Sep-15 05:00N 29°47' W 095°04'2 0.7
2017-Sep-15 02:42N 29°46' W 095°05'1 0.0
2017-Sep-14 02:20N 29°45' W 095°06'1 1.1
2017-Sep-14 01:19N 29°46' W 095°06'0 0.7
2017-Sep-14 00:59N 29°46' W 095°06'2 3.7
2017-Sep-14 00:30N 29°44' W 095°07'1 0.8
2017-Sep-13 23:35N 29°44' W 095°08'0 1.4
2017-Sep-13 23:28N 29°44' W 095°08'2 4.2
2017-Sep-13 22:58N 29°45' W 095°06'2 3.2
2017-Sep-13 22:27N 29°47' W 095°05'1 0.6
2017-Sep-13 20:45N 29°46' W 095°05'1 1.7
2017-Sep-13 20:13N 29°46' W 095°06'0 0.7
2017-Sep-13 19:51N 29°46' W 095°06'1 1.3
2017-Sep-13 19:27N 29°46' W 095°05'2 5.3
2017-Sep-13 19:00N 29°44' W 095°03'3 5.3
2017-Sep-13 18:30N 29°43' W 095°01'3 5.3
2017-Sep-13 18:00N 29°41' W 094°59'3 5.9
2017-Sep-13 17:30N 29°38' W 094°58'3 6.3
2017-Sep-13 17:00N 29°35' W 094°56'3 6.0
2017-Sep-13 16:30N 29°33' W 094°54'3 5.9
2017-Sep-13 16:00N 29°30' W 094°52'1 0.1
2017-Sep-12 17:55N 29°31' W 094°53'3 6.9
2017-Sep-12 17:30N 29°34' W 094°55'3 6.5
2017-Sep-12 17:00N 29°37' W 094°57'3 6.7
2017-Sep-12 16:30N 29°40' W 094°58'3 6.4
2017-Sep-12 16:00N 29°42' W 095°01'3 5.9
2017-Sep-12 15:30N 29°44' W 095°03'2 5.0
2017-Sep-12 15:00N 29°46' W 095°05'1 0.5
2017-Sep-12 13:35N 29°46' W 095°06'0 0.0
2017-Sep-12 13:29N 29°46' W 095°06'0 0.0
2017-Sep-12 12:56N 29°46' W 095°06'0 0.0
2017-Sep-12 12:05N 29°46' W 095°06'0 0.1
2017-Sep-12 11:58N 29°46' W 095°06'3 5.9
2017-Sep-12 11:30N 29°45' W 095°04'3 6.1
2017-Sep-12 11:00N 29°42' W 095°01'3 6.3
2017-Sep-12 10:31N 29°40' W 094°59'4 7.3
2017-Sep-12 10:01N 29°37' W 094°57'4 7.4
2017-Sep-12 09:30N 29°34' W 094°55'4 7.5
2017-Sep-12 09:01N 29°31' W 094°53'  

Dump ship's entire track history